createdAt,value
2023-04-30T00:00:19.410Z,4.90
2023-04-30T00:01:21.148Z,5.50
2023-04-30T00:02:22.863Z,4.95
2023-04-30T00:03:24.693Z,5.80
2023-04-30T00:04:26.441Z,4.88
2023-04-30T00:05:28.044Z,5.45
2023-04-30T00:06:29.794Z,4.70
2023-04-30T00:07:32.131Z,5.05
2023-04-30T00:08:33.711Z,5.70
2023-04-30T00:09:35.547Z,5.15
2023-04-30T00:10:37.100Z,4.90
2023-04-30T00:11:38.648Z,5.30
2023-04-30T00:12:40.304Z,5.88
2023-04-30T00:13:42.976Z,5.10
2023-04-30T00:14:44.610Z,5.55
2023-04-30T00:15:46.272Z,5.00
2023-04-30T00:16:48.006Z,5.35
2023-04-30T00:17:50.017Z,5.20
2023-04-30T00:18:51.668Z,4.60
2023-04-30T00:19:53.996Z,5.10
2023-04-30T00:20:55.692Z,4.95
2023-04-30T00:21:57.281Z,4.40
2023-04-30T00:22:58.847Z,5.47
2023-04-30T00:24:00.778Z,5.05
2023-04-30T00:25:02.368Z,5.43
2023-04-30T00:26:03.960Z,4.88
2023-04-30T00:27:05.845Z,5.38
2023-04-30T00:28:07.432Z,5.35
2023-04-30T00:29:08.985Z,5.40
2023-04-30T00:30:11.167Z,4.82
2023-04-30T00:31:12.738Z,5.20
2023-04-30T00:32:14.429Z,5.00
2023-04-30T00:33:16.167Z,4.40
2023-04-30T00:34:17.778Z,5.60
2023-04-30T00:35:19.417Z,5.00
2023-04-30T00:36:21.256Z,4.90
2023-04-30T00:37:22.847Z,5.07
2023-04-30T00:38:24.473Z,4.68
2023-04-30T00:39:26.061Z,4.90
2023-04-30T00:40:27.623Z,5.38
2023-04-30T00:41:30.222Z,5.45
2023-04-30T00:42:31.774Z,4.55
2023-04-30T00:43:34.409Z,4.90
2023-04-30T00:44:36.097Z,4.60
2023-04-30T00:45:37.724Z,4.75
2023-04-30T00:46:39.356Z,5.07
2023-04-30T00:47:41.332Z,4.90
2023-04-30T00:48:43.500Z,4.80
2023-04-30T00:49:45.557Z,4.20
2023-04-30T00:50:47.204Z,4.80
2023-04-30T00:51:49.444Z,4.80
2023-04-30T00:52:51.368Z,3.90
2023-04-30T00:53:53.001Z,4.50
2023-04-30T00:54:55.620Z,4.57
2023-04-30T00:55:57.225Z,5.75
2023-04-30T00:56:59.281Z,5.00
2023-04-30T00:58:01.126Z,4.75
2023-04-30T00:59:02.842Z,5.50
2023-04-30T01:00:05.341Z,5.05
2023-04-30T01:01:07.211Z,5.07
2023-04-30T01:02:09.649Z,5.65
2023-04-30T01:03:11.312Z,5.53
2023-04-30T01:04:13.072Z,5.60
2023-04-30T01:05:14.623Z,4.70
2023-04-30T01:06:16.349Z,4.80
2023-04-30T01:07:18.038Z,5.30
2023-04-30T01:08:20.116Z,5.50
2023-04-30T01:09:21.743Z,5.10
2023-04-30T01:10:30.506Z,4.90
2023-04-30T01:11:46.801Z,5.05
2023-04-30T01:13:10.404Z,5.43
2023-04-30T01:14:25.852Z,4.82
2023-04-30T01:15:34.770Z,5.25
2023-04-30T01:16:46.990Z,4.55
2023-04-30T01:17:56.610Z,5.40
2023-04-30T01:19:04.902Z,5.07
2023-04-30T01:20:09.688Z,5.45
2023-04-30T01:21:13.049Z,4.75
2023-04-30T01:22:27.239Z,5.18
2023-04-30T01:23:59.003Z,4.80
2023-04-30T01:25:25.558Z,6.32
2023-04-30T01:26:52.969Z,5.00
2023-04-30T01:28:04.067Z,4.93
2023-04-30T01:29:06.489Z,4.82
2023-04-30T01:30:09.287Z,5.35
2023-04-30T01:31:16.519Z,5.63
2023-04-30T01:32:18.298Z,4.53
2023-04-30T01:33:20.030Z,5.53
2023-04-30T01:34:21.747Z,5.35
2023-04-30T01:35:39.971Z,5.88
2023-04-30T01:37:08.442Z,4.55
2023-04-30T01:38:37.769Z,4.85
2023-04-30T01:40:09.794Z,4.40
2023-04-30T01:41:49.097Z,5.18
2023-04-30T01:42:57.583Z,5.28
2023-04-30T01:44:23.374Z,5.32
2023-04-30T01:45:52.847Z,5.50
2023-04-30T01:47:17.453Z,5.13
2023-04-30T01:48:45.080Z,5.05
2023-04-30T01:50:05.192Z,5.30
2023-04-30T01:51:28.600Z,5.70
2023-04-30T01:52:41.195Z,5.40
2023-04-30T01:53:46.192Z,5.70
2023-04-30T01:55:01.139Z,5.10
2023-04-30T01:56:06.166Z,4.80
2023-04-30T01:57:11.575Z,5.10
2023-04-30T01:58:15.525Z,5.80
2023-04-30T01:59:17.912Z,5.80
2023-04-30T02:00:19.641Z,4.72
2023-04-30T02:01:32.525Z,5.55
2023-04-30T02:02:34.403Z,5.70
2023-04-30T02:03:36.112Z,5.05
2023-04-30T02:04:37.754Z,5.32
2023-04-30T02:05:39.341Z,6.18
2023-04-30T02:06:41.463Z,6.15
2023-04-30T02:07:45.540Z,5.68
2023-04-30T02:08:47.096Z,5.97
2023-04-30T02:09:48.671Z,5.80
2023-04-30T02:10:50.277Z,5.75
2023-04-30T02:11:51.875Z,5.00
2023-04-30T02:12:54.024Z,5.78
2023-04-30T02:13:55.631Z,5.05
2023-04-30T02:14:57.743Z,5.20
2023-04-30T02:15:59.291Z,5.65
2023-04-30T02:17:00.969Z,6.28
2023-04-30T02:18:02.572Z,5.63
2023-04-30T02:19:04.233Z,5.20
2023-04-30T02:20:07.126Z,5.82
2023-04-30T02:21:08.684Z,5.25
2023-04-30T02:22:10.269Z,5.85
2023-04-30T02:23:11.805Z,4.93
2023-04-30T02:24:13.421Z,5.57
2023-04-30T02:25:15.054Z,6.15
2023-04-30T02:26:16.614Z,5.50
2023-04-30T02:27:18.367Z,6.35
2023-04-30T02:28:19.925Z,5.50
2023-04-30T02:29:21.777Z,4.75
2023-04-30T02:30:23.358Z,5.20
2023-04-30T02:31:24.955Z,5.93
2023-04-30T02:32:26.706Z,5.32
2023-04-30T02:33:28.392Z,6.00
2023-04-30T02:34:29.959Z,5.65
2023-04-30T02:35:31.548Z,5.25
2023-04-30T02:36:36.459Z,5.68
2023-04-30T02:37:38.069Z,6.45
2023-04-30T02:38:39.660Z,6.05
2023-04-30T02:39:41.524Z,6.32
2023-04-30T02:40:43.163Z,5.32
2023-04-30T02:41:44.732Z,5.55
2023-04-30T02:42:46.314Z,6.03
2023-04-30T02:43:47.934Z,4.85
2023-04-30T02:44:49.539Z,5.90
2023-04-30T02:45:51.420Z,6.45
2023-04-30T02:46:53.040Z,5.35
2023-04-30T02:47:54.637Z,6.00
2023-04-30T02:48:56.317Z,5.75
2023-04-30T02:49:57.851Z,5.07
2023-04-30T02:50:59.598Z,5.85
2023-04-30T02:52:01.233Z,4.97
2023-04-30T02:53:02.872Z,5.80
2023-04-30T02:54:04.440Z,6.60
2023-04-30T02:55:06.817Z,5.88
2023-04-30T02:56:08.379Z,5.43
2023-04-30T02:57:09.937Z,5.55
2023-04-30T02:58:11.477Z,6.65
2023-04-30T02:59:13.256Z,6.15
2023-04-30T03:00:15.434Z,5.85
2023-04-30T03:01:17.712Z,6.78
2023-04-30T03:02:21.573Z,5.65
2023-04-30T03:03:23.545Z,6.00
2023-04-30T03:04:25.699Z,6.50
2023-04-30T03:05:27.680Z,5.20
2023-04-30T03:06:29.907Z,6.38
2023-04-30T03:07:31.462Z,5.80
2023-04-30T03:08:33.095Z,5.40
2023-04-30T03:09:34.687Z,5.50
2023-04-30T03:10:36.248Z,5.70
2023-04-30T03:11:38.005Z,5.40
2023-04-30T03:12:39.621Z,5.25
2023-04-30T03:13:41.404Z,6.28
2023-04-30T03:14:43.124Z,6.13
2023-04-30T03:15:44.935Z,5.22
2023-04-30T03:16:46.604Z,5.85
2023-04-30T03:17:48.186Z,5.20
2023-04-30T03:18:49.837Z,5.97
2023-04-30T03:19:51.574Z,5.47
2023-04-30T03:20:53.161Z,5.18
2023-04-30T03:21:55.301Z,5.45
2023-04-30T03:22:57.001Z,6.13
2023-04-30T03:23:58.688Z,5.63
2023-04-30T03:25:00.491Z,5.25
2023-04-30T03:26:02.253Z,5.32
2023-04-30T03:27:03.982Z,5.75
2023-04-30T03:28:05.634Z,5.47
2023-04-30T03:29:07.637Z,6.00
2023-04-30T03:30:09.549Z,5.10
2023-04-30T03:31:11.145Z,5.55
2023-04-30T03:32:12.767Z,5.93
2023-04-30T03:33:14.493Z,6.03
2023-04-30T03:34:16.183Z,4.93
2023-04-30T03:35:19.062Z,5.93
2023-04-30T03:36:21.027Z,5.53
2023-04-30T03:37:22.624Z,5.05
2023-04-30T03:38:24.355Z,5.57
2023-04-30T03:39:26.117Z,6.63
2023-04-30T03:40:27.664Z,5.80
2023-04-30T03:41:29.451Z,6.03
2023-04-30T03:42:31.086Z,5.60
2023-04-30T03:43:32.630Z,4.72
2023-04-30T03:44:34.172Z,5.63
2023-04-30T03:45:36.264Z,5.95
2023-04-30T03:46:38.051Z,4.80
2023-04-30T03:47:39.854Z,5.80
2023-04-30T03:48:41.469Z,6.10
2023-04-30T03:49:43.026Z,5.50
2023-04-30T03:50:45.151Z,4.85
2023-04-30T03:51:46.866Z,5.82
2023-04-30T03:52:48.558Z,5.40
2023-04-30T03:53:50.153Z,5.50
2023-04-30T03:54:51.736Z,5.55
2023-04-30T03:55:54.569Z,5.13
2023-04-30T03:56:56.381Z,5.40
2023-04-30T03:57:58.406Z,5.45
2023-04-30T03:59:00.200Z,5.15
2023-04-30T04:00:02.265Z,5.93
2023-04-30T04:01:04.229Z,6.35
2023-04-30T04:02:06.400Z,5.30
2023-04-30T04:03:08.399Z,5.47
2023-04-30T04:04:10.391Z,6.20
2023-04-30T04:05:12.087Z,5.78
2023-04-30T04:06:13.702Z,5.15
2023-04-30T04:07:15.445Z,5.60
2023-04-30T04:08:17.057Z,5.50
2023-04-30T04:09:18.610Z,5.18
2023-04-30T04:10:20.489Z,5.97
2023-04-30T04:11:22.124Z,6.40
2023-04-30T04:12:23.725Z,6.53
2023-04-30T04:13:25.526Z,6.15
2023-04-30T04:14:27.286Z,5.65
2023-04-30T04:15:28.876Z,5.90
2023-04-30T04:16:30.550Z,5.93
2023-04-30T04:17:32.363Z,5.60
2023-04-30T04:18:34.042Z,5.45
2023-04-30T04:19:35.749Z,5.78
2023-04-30T04:20:37.316Z,5.90
2023-04-30T04:21:39.042Z,5.80
2023-04-30T04:22:40.744Z,5.43
2023-04-30T04:23:42.313Z,5.88
2023-04-30T04:24:43.970Z,5.55
2023-04-30T04:25:49.559Z,5.43
2023-04-30T04:26:51.992Z,5.80
2023-04-30T04:27:53.545Z,5.30
2023-04-30T04:28:55.434Z,6.32
2023-04-30T04:29:57.274Z,5.80
2023-04-30T04:30:59.551Z,6.13
2023-04-30T04:32:02.837Z,6.40
2023-04-30T04:33:05.860Z,5.90
2023-04-30T04:34:07.503Z,5.13
2023-04-30T04:35:09.202Z,5.90
2023-04-30T04:36:11.304Z,5.95
2023-04-30T04:37:12.916Z,5.57
2023-04-30T04:38:14.520Z,5.75
2023-04-30T04:39:16.165Z,5.97
2023-04-30T04:40:18.517Z,5.03
2023-04-30T04:41:20.863Z,5.38
2023-04-30T04:42:22.936Z,5.00
2023-04-30T04:43:24.701Z,5.43
2023-04-30T04:44:27.190Z,6.03
2023-04-30T04:45:28.784Z,5.22
2023-04-30T04:46:31.877Z,5.65
2023-04-30T04:47:33.701Z,4.60
2023-04-30T04:48:35.474Z,5.57
2023-04-30T04:49:37.378Z,5.47
2023-04-30T04:50:38.934Z,5.70
2023-04-30T04:51:40.552Z,5.65
2023-04-30T04:52:42.163Z,5.90
2023-04-30T04:53:43.753Z,4.80
2023-04-30T04:54:45.361Z,7.30
2023-04-30T04:55:46.927Z,6.15
2023-04-30T04:56:48.554Z,5.07
2023-04-30T04:57:50.206Z,5.85
2023-04-30T04:58:51.762Z,5.78
2023-04-30T04:59:53.491Z,5.90
2023-04-30T05:00:55.342Z,6.00
2023-04-30T05:01:56.968Z,5.40
2023-04-30T05:02:58.640Z,4.82
2023-04-30T05:04:00.332Z,4.95
2023-04-30T05:05:01.989Z,5.45
2023-04-30T05:06:04.518Z,4.47
2023-04-30T05:07:06.258Z,5.28
2023-04-30T05:08:07.832Z,5.25
2023-04-30T05:09:09.845Z,5.50
2023-04-30T05:10:11.506Z,6.18
2023-04-30T05:11:15.402Z,5.70
2023-04-30T05:12:17.343Z,5.50
2023-04-30T05:13:18.876Z,5.90
2023-04-30T05:14:21.134Z,6.03
2023-04-30T05:15:22.743Z,5.95
2023-04-30T05:16:24.395Z,7.10
2023-04-30T05:17:26.319Z,5.80
2023-04-30T05:18:28.089Z,5.95
2023-04-30T05:19:29.712Z,5.40
2023-04-30T05:20:31.365Z,5.22
2023-04-30T05:21:33.043Z,6.20
2023-04-30T05:22:34.722Z,6.30
2023-04-30T05:23:36.294Z,7.07
2023-04-30T05:24:37.866Z,5.65
2023-04-30T05:25:39.423Z,6.35
2023-04-30T05:26:41.046Z,6.38
2023-04-30T05:27:42.680Z,6.93
2023-04-30T05:28:45.224Z,6.03
2023-04-30T05:29:46.911Z,5.47
2023-04-30T05:30:48.672Z,5.93
2023-04-30T05:31:50.330Z,5.65
2023-04-30T05:32:52.609Z,6.10
2023-04-30T05:33:54.274Z,5.95
2023-04-30T05:34:55.830Z,6.70
2023-04-30T05:35:57.440Z,5.15
2023-04-30T05:36:59.073Z,5.68
2023-04-30T05:38:01.032Z,6.38
2023-04-30T05:39:02.618Z,6.22
2023-04-30T05:40:06.195Z,5.63
2023-04-30T05:41:08.003Z,6.05
2023-04-30T05:42:09.572Z,5.00
2023-04-30T05:43:11.170Z,5.80
2023-04-30T05:44:12.735Z,5.57
2023-04-30T05:45:17.131Z,5.35
2023-04-30T05:46:18.902Z,5.00
2023-04-30T05:47:20.627Z,5.10
2023-04-30T05:48:22.203Z,5.10
2023-04-30T05:49:23.814Z,4.50
2023-04-30T05:50:25.379Z,6.30
2023-04-30T05:51:27.837Z,5.22
2023-04-30T05:52:29.526Z,5.20
2023-04-30T05:53:31.117Z,5.65
2023-04-30T05:54:33.044Z,6.00
2023-04-30T05:55:34.715Z,5.70
2023-04-30T05:56:36.315Z,5.70
2023-04-30T05:57:38.182Z,6.28
2023-04-30T05:58:39.953Z,5.68
2023-04-30T05:59:41.734Z,5.53
2023-04-30T06:00:43.348Z,5.63
2023-04-30T06:01:44.985Z,5.00
2023-04-30T06:02:46.626Z,5.72
2023-04-30T06:03:48.272Z,5.25
2023-04-30T06:04:50.019Z,4.75
2023-04-30T06:05:51.631Z,5.75
2023-04-30T06:06:53.274Z,5.57
2023-04-30T06:07:54.866Z,5.03
2023-04-30T06:08:56.435Z,5.15
2023-04-30T06:09:58.701Z,4.78
2023-04-30T06:11:00.599Z,4.97
2023-04-30T06:12:02.497Z,4.78
2023-04-30T06:13:04.263Z,5.13
2023-04-30T06:14:06.484Z,5.60
2023-04-30T06:15:08.300Z,4.80
2023-04-30T06:16:10.031Z,4.93
2023-04-30T06:17:12.639Z,4.32
2023-04-30T06:18:14.525Z,4.50
2023-04-30T06:19:16.140Z,4.85
2023-04-30T06:20:17.740Z,4.65
2023-04-30T06:21:20.380Z,4.05
2023-04-30T06:22:22.420Z,5.53
2023-04-30T06:23:23.960Z,5.20
2023-04-30T06:24:27.536Z,5.03
2023-04-30T06:25:29.124Z,4.82
2023-04-30T06:26:31.047Z,3.83
2023-04-30T06:27:32.688Z,4.20
2023-04-30T06:28:34.284Z,4.30
2023-04-30T06:29:35.856Z,3.67
2023-04-30T06:30:37.655Z,4.50
2023-04-30T06:31:39.421Z,4.45
2023-04-30T06:32:41.489Z,5.18
2023-04-30T06:33:43.142Z,4.00
2023-04-30T06:34:44.690Z,4.38
2023-04-30T06:35:46.496Z,3.80
2023-04-30T06:36:48.084Z,4.50
2023-04-30T06:37:49.673Z,4.25
2023-04-30T06:38:51.278Z,4.40
2023-04-30T06:39:53.380Z,3.45
2023-04-30T06:40:55.468Z,4.90
2023-04-30T06:41:57.043Z,4.18
2023-04-30T06:42:58.940Z,3.65
2023-04-30T06:44:00.673Z,4.18
2023-04-30T06:45:02.678Z,4.20
2023-04-30T06:46:04.883Z,3.85
2023-04-30T06:47:06.527Z,3.75
2023-04-30T06:48:08.276Z,4.25
2023-04-30T06:49:09.914Z,3.53
2023-04-30T06:50:11.486Z,4.18
2023-04-30T06:51:13.057Z,4.55
2023-04-30T06:52:14.833Z,3.83
2023-04-30T06:53:16.554Z,4.00
2023-04-30T06:54:18.164Z,4.07
2023-04-30T06:55:19.957Z,4.13
2023-04-30T06:56:21.984Z,4.65
2023-04-30T06:57:24.612Z,5.05
2023-04-30T06:58:26.451Z,4.15
2023-04-30T06:59:28.354Z,4.40
2023-04-30T07:00:29.919Z,4.47
2023-04-30T07:01:31.572Z,3.58
2023-04-30T07:02:33.480Z,4.20
2023-04-30T07:03:35.626Z,3.55
2023-04-30T07:04:37.245Z,4.97
2023-04-30T07:05:38.852Z,3.80
2023-04-30T07:06:40.498Z,4.70
2023-04-30T07:07:42.088Z,4.60
2023-04-30T07:08:44.005Z,3.58
2023-04-30T07:09:45.581Z,4.47
2023-04-30T07:10:47.181Z,3.92
2023-04-30T07:11:49.007Z,4.80
2023-04-30T07:12:50.599Z,3.92
2023-04-30T07:13:52.299Z,4.38
2023-04-30T07:14:53.845Z,3.67
2023-04-30T07:15:55.616Z,3.72
2023-04-30T07:16:57.275Z,4.10
2023-04-30T07:17:58.862Z,4.15
2023-04-30T07:19:00.500Z,4.13
2023-04-30T07:20:02.131Z,3.67
2023-04-30T07:21:04.088Z,4.40
2023-04-30T07:22:05.706Z,3.97
2023-04-30T07:23:07.320Z,3.22
2023-04-30T07:24:08.983Z,3.72
2023-04-30T07:25:11.548Z,4.15
2023-04-30T07:26:13.152Z,3.70
2023-04-30T07:27:14.703Z,3.25
2023-04-30T07:28:16.399Z,3.80
2023-04-30T07:29:18.302Z,3.95
2023-04-30T07:30:19.958Z,3.35
2023-04-30T07:31:21.593Z,3.67
2023-04-30T07:32:23.360Z,4.88
2023-04-30T07:33:24.994Z,3.35
2023-04-30T07:34:27.898Z,3.70
2023-04-30T07:35:29.538Z,3.55
2023-04-30T07:36:31.507Z,3.55
2023-04-30T07:37:35.567Z,3.67
2023-04-30T07:38:37.711Z,3.25
2023-04-30T07:39:39.647Z,3.60
2023-04-30T07:40:41.217Z,3.35
2023-04-30T07:41:43.105Z,3.42
2023-04-30T07:42:47.634Z,3.10
2023-04-30T07:43:49.197Z,3.20
2023-04-30T07:44:52.754Z,3.28
2023-04-30T07:45:54.912Z,4.00
2023-04-30T07:46:56.696Z,4.05
2023-04-30T07:47:58.360Z,3.80
2023-04-30T07:48:59.993Z,3.78
2023-04-30T07:50:01.802Z,3.63
2023-04-30T07:51:04.814Z,3.30
2023-04-30T07:52:08.509Z,3.47
2023-04-30T07:53:10.253Z,3.17
2023-04-30T07:54:11.852Z,3.60
2023-04-30T07:55:13.599Z,3.60
2023-04-30T07:56:15.221Z,3.22
2023-04-30T07:57:16.807Z,3.45
2023-04-30T07:58:18.455Z,3.30
2023-04-30T07:59:21.587Z,3.80
2023-04-30T08:00:23.256Z,2.95
2023-04-30T08:01:24.868Z,3.88
2023-04-30T08:02:26.721Z,3.38
2023-04-30T08:03:28.435Z,2.95
2023-04-30T08:04:30.400Z,3.03
2023-04-30T08:05:32.154Z,3.15
2023-04-30T08:06:34.296Z,3.20
2023-04-30T08:07:35.964Z,3.58
2023-04-30T08:08:37.965Z,3.85
2023-04-30T08:09:39.592Z,3.40
2023-04-30T08:10:41.885Z,3.60
2023-04-30T08:11:43.465Z,3.20
2023-04-30T08:12:45.125Z,4.00
2023-04-30T08:13:46.987Z,4.00
2023-04-30T08:14:48.529Z,2.80
2023-04-30T08:15:50.130Z,3.10
2023-04-30T08:16:51.882Z,3.20
2023-04-30T08:17:53.555Z,3.17
2023-04-30T08:18:55.447Z,2.85
2023-04-30T08:19:57.100Z,3.15
2023-04-30T08:21:00.004Z,3.58
2023-04-30T08:22:01.742Z,3.50
2023-04-30T08:23:03.296Z,3.05
2023-04-30T08:24:05.439Z,3.28
2023-04-30T08:25:07.389Z,3.35
2023-04-30T08:26:09.053Z,3.50
2023-04-30T08:27:10.596Z,2.95
2023-04-30T08:28:12.563Z,3.28
2023-04-30T08:29:14.188Z,3.35
2023-04-30T08:30:15.938Z,2.70
2023-04-30T08:31:19.031Z,3.90
2023-04-30T08:32:20.867Z,2.33
2023-04-30T08:33:22.662Z,3.55
2023-04-30T08:34:24.331Z,2.70
2023-04-30T08:35:26.234Z,3.33
2023-04-30T08:36:27.845Z,2.88
2023-04-30T08:37:29.417Z,3.20
2023-04-30T08:38:31.124Z,2.58
2023-04-30T08:39:32.679Z,2.90
2023-04-30T08:40:50.143Z,3.03
2023-04-30T08:41:56.232Z,3.20
2023-04-30T08:43:05.274Z,2.75
2023-04-30T08:44:08.483Z,2.47
2023-04-30T08:45:12.894Z,2.75
2023-04-30T08:46:16.936Z,2.70
2023-04-30T08:47:20.652Z,2.97
2023-04-30T08:48:24.776Z,4.05
2023-04-30T08:49:28.123Z,2.58
2023-04-30T08:50:30.044Z,2.55
2023-04-30T08:51:32.890Z,3.30
2023-04-30T08:52:35.961Z,3.42
2023-04-30T08:53:38.445Z,3.03
2023-04-30T08:54:40.228Z,3.50
2023-04-30T08:55:41.933Z,3.50
2023-04-30T08:56:45.163Z,2.28
2023-04-30T08:57:46.975Z,3.22
2023-04-30T08:58:48.561Z,3.15
2023-04-30T08:59:50.179Z,3.20
2023-04-30T09:00:51.793Z,2.67
2023-04-30T09:01:54.072Z,2.45
2023-04-30T09:02:56.084Z,2.95
2023-04-30T09:03:58.022Z,3.03
2023-04-30T09:04:59.615Z,2.85
2023-04-30T09:06:01.222Z,3.00
2023-04-30T09:07:06.272Z,3.25
2023-04-30T09:08:09.474Z,2.70
2023-04-30T09:09:15.636Z,2.70
2023-04-30T09:10:21.540Z,3.10
2023-04-30T09:11:30.754Z,3.40
2023-04-30T09:12:32.329Z,2.80
2023-04-30T09:13:43.047Z,3.00
2023-04-30T09:15:11.268Z,2.70
2023-04-30T09:16:13.428Z,3.10
2023-04-30T09:17:22.804Z,2.90
2023-04-30T09:18:24.409Z,2.95
2023-04-30T09:19:30.422Z,3.30
2023-04-30T09:20:32.088Z,2.20
2023-04-30T09:21:35.791Z,2.50
2023-04-30T09:22:38.790Z,2.63
2023-04-30T09:23:56.394Z,2.60
2023-04-30T09:24:57.990Z,2.50
2023-04-30T09:26:00.701Z,2.50
2023-04-30T09:27:16.585Z,2.70
2023-04-30T09:28:23.572Z,2.50
2023-04-30T09:29:37.488Z,3.20
2023-04-30T09:30:42.720Z,2.67
2023-04-30T09:31:47.462Z,2.10
2023-04-30T09:32:56.792Z,1.67
2023-04-30T09:33:58.659Z,2.30
2023-04-30T09:35:00.510Z,2.80
2023-04-30T09:36:09.315Z,2.60
2023-04-30T09:37:11.778Z,2.27
2023-04-30T09:38:32.672Z,2.43
2023-04-30T09:39:46.061Z,2.77
2023-04-30T09:40:48.190Z,3.00
2023-04-30T09:41:51.978Z,2.50
2023-04-30T09:42:59.547Z,3.03
2023-04-30T09:44:01.937Z,2.70
2023-04-30T09:45:05.210Z,2.80
2023-04-30T09:46:06.820Z,3.00
2023-04-30T09:47:19.287Z,2.70
2023-04-30T09:48:25.386Z,3.87
2023-04-30T09:49:27.570Z,2.90
2023-04-30T09:50:39.976Z,2.93
2023-04-30T09:51:59.448Z,3.33
2023-04-30T09:53:14.262Z,2.97
2023-04-30T09:54:18.012Z,2.53
2023-04-30T09:55:22.276Z,3.17
2023-04-30T09:56:25.964Z,2.80
2023-04-30T09:57:30.286Z,2.30
2023-04-30T09:58:33.878Z,2.77
2023-04-30T09:59:37.768Z,2.40
2023-04-30T10:00:40.323Z,1.80
2023-04-30T10:01:42.113Z,2.60
2023-04-30T10:02:43.898Z,2.30
2023-04-30T10:03:47.310Z,2.40
2023-04-30T10:04:53.716Z,2.00
2023-04-30T10:05:55.590Z,2.63
2023-04-30T10:06:59.232Z,2.40
2023-04-30T10:08:01.178Z,2.37
2023-04-30T10:09:05.203Z,2.20
2023-04-30T10:10:10.836Z,2.90
2023-04-30T10:11:18.227Z,2.30
2023-04-30T10:12:27.435Z,2.23
2023-04-30T10:13:33.450Z,2.40
2023-04-30T10:14:35.780Z,2.50
2023-04-30T10:15:48.384Z,2.90
2023-04-30T10:17:08.578Z,2.27
2023-04-30T10:18:19.381Z,2.40
2023-04-30T10:19:25.509Z,2.63
2023-04-30T10:20:27.971Z,2.50
2023-04-30T10:21:32.421Z,2.50
2023-04-30T10:22:35.369Z,2.40
2023-04-30T10:23:39.480Z,2.80
2023-04-30T10:24:44.797Z,2.50
2023-04-30T10:25:46.566Z,2.60
2023-04-30T10:26:49.222Z,2.90
2023-04-30T10:27:51.739Z,2.57
2023-04-30T10:28:54.227Z,3.23
2023-04-30T10:29:56.844Z,3.17
2023-04-30T10:30:59.208Z,2.73
2023-04-30T10:32:01.266Z,2.30
2023-04-30T10:33:19.192Z,2.60
2023-04-30T10:34:42.867Z,2.90
2023-04-30T10:35:53.398Z,2.43
2023-04-30T10:37:00.019Z,2.37
2023-04-30T10:38:15.256Z,2.83
2023-04-30T10:39:22.396Z,2.07
2023-04-30T10:40:26.923Z,2.20
2023-04-30T10:41:29.339Z,2.20
2023-04-30T10:42:31.526Z,1.90
2023-04-30T10:43:35.785Z,2.47
2023-04-30T10:44:37.811Z,1.60
2023-04-30T10:45:47.128Z,1.80
2023-04-30T10:46:49.112Z,1.70
2023-04-30T10:47:50.750Z,1.53
2023-04-30T10:48:55.995Z,2.27
2023-04-30T10:50:05.277Z,1.83
2023-04-30T10:51:09.000Z,1.87
2023-04-30T10:52:11.463Z,1.77
2023-04-30T10:53:19.771Z,2.13
2023-04-30T10:54:29.593Z,2.00
2023-04-30T10:55:32.156Z,1.63
2023-04-30T10:56:34.668Z,1.53
2023-04-30T10:57:43.759Z,1.20
2023-04-30T10:58:45.689Z,2.70
2023-04-30T11:00:15.037Z,2.13
2023-04-30T11:01:20.603Z,1.50
2023-04-30T11:02:22.438Z,1.50
2023-04-30T11:03:25.028Z,1.50
2023-04-30T11:04:27.219Z,1.43
2023-04-30T11:05:39.974Z,1.00
2023-04-30T11:06:54.987Z,1.47
2023-04-30T11:07:58.304Z,1.50
2023-04-30T11:09:04.313Z,1.60
2023-04-30T11:10:08.684Z,1.33
2023-04-30T11:11:11.456Z,1.70
2023-04-30T11:12:15.392Z,1.60
2023-04-30T11:13:17.047Z,1.80
2023-04-30T11:14:21.467Z,1.83
2023-04-30T11:15:27.551Z,2.00
2023-04-30T11:16:31.255Z,1.40
2023-04-30T11:17:33.763Z,1.57
2023-04-30T11:18:40.980Z,1.37
2023-04-30T11:19:47.577Z,1.50
2023-04-30T11:20:52.283Z,1.67
2023-04-30T11:22:05.962Z,1.77
2023-04-30T11:23:19.679Z,1.23
2023-04-30T11:24:52.638Z,1.83
2023-04-30T11:25:56.109Z,1.70
2023-04-30T11:27:05.815Z,1.40
2023-04-30T11:28:08.038Z,1.80
2023-04-30T11:29:09.956Z,1.07
2023-04-30T11:30:16.317Z,1.23
2023-04-30T11:31:18.522Z,1.07
2023-04-30T11:32:21.712Z,1.23
2023-04-30T11:33:24.911Z,1.00
2023-04-30T11:34:26.993Z,0.90
2023-04-30T11:35:28.838Z,0.90
2023-04-30T11:36:33.814Z,0.93
2023-04-30T11:37:40.458Z,0.90
2023-04-30T11:38:42.459Z,1.03
2023-04-30T11:39:44.421Z,1.00
2023-04-30T11:40:48.919Z,0.90
2023-04-30T11:41:50.579Z,1.00
2023-04-30T11:42:52.130Z,0.70
2023-04-30T11:43:53.688Z,1.20
2023-04-30T11:45:02.178Z,1.40
2023-04-30T11:46:15.863Z,1.20
2023-04-30T11:47:17.471Z,1.90
2023-04-30T11:48:19.093Z,1.50
2023-04-30T11:49:21.024Z,2.07
2023-04-30T11:50:31.099Z,1.53
2023-04-30T11:51:36.640Z,1.43
2023-04-30T11:52:39.170Z,2.10
2023-04-30T11:53:41.367Z,1.40
2023-04-30T11:54:42.954Z,1.67
2023-04-30T11:55:44.615Z,1.97
2023-04-30T11:56:50.436Z,2.00
2023-04-30T11:57:58.606Z,1.93
2023-04-30T11:59:00.309Z,1.60
2023-04-30T12:00:16.169Z,1.50
2023-04-30T12:01:18.393Z,1.83
2023-04-30T12:02:20.039Z,1.40
2023-04-30T12:03:22.103Z,1.40
2023-04-30T12:04:24.169Z,1.83
2023-04-30T12:05:27.838Z,1.70
2023-04-30T12:06:30.049Z,2.17
2023-04-30T12:07:32.094Z,2.03
2023-04-30T12:08:33.821Z,1.80
2023-04-30T12:09:56.382Z,1.60
2023-04-30T12:10:58.327Z,1.63
2023-04-30T12:12:00.005Z,1.80
2023-04-30T12:13:02.084Z,1.70
2023-04-30T12:14:05.069Z,1.53
2023-04-30T12:15:14.620Z,1.60
2023-04-30T12:16:16.401Z,1.53
2023-04-30T12:17:32.071Z,1.70
2023-04-30T12:18:33.647Z,1.90
2023-04-30T12:19:35.220Z,1.80
2023-04-30T12:20:38.345Z,1.80
2023-04-30T12:21:42.120Z,1.47
2023-04-30T12:22:44.718Z,1.90
2023-04-30T12:23:46.432Z,1.50
2023-04-30T12:24:49.888Z,1.50
2023-04-30T12:25:51.686Z,1.40
2023-04-30T12:26:53.785Z,1.50
2023-04-30T12:27:55.573Z,1.30
2023-04-30T12:28:57.211Z,1.70
2023-04-30T12:30:04.005Z,1.93
2023-04-30T12:31:05.974Z,1.50
2023-04-30T12:32:07.694Z,1.80
2023-04-30T12:33:10.860Z,1.60
2023-04-30T12:34:13.674Z,1.43
2023-04-30T12:35:17.496Z,1.53
2023-04-30T12:36:19.961Z,1.63
2023-04-30T12:37:21.507Z,1.87
2023-04-30T12:38:23.351Z,1.40
2023-04-30T12:39:25.099Z,1.77
2023-04-30T12:40:27.826Z,1.43
2023-04-30T12:41:30.039Z,1.83
2023-04-30T12:42:35.757Z,1.43
2023-04-30T12:43:37.394Z,1.63
2023-04-30T12:44:46.876Z,1.90
2023-04-30T12:45:53.564Z,1.50
2023-04-30T12:46:57.596Z,1.23
2023-04-30T12:47:59.313Z,1.60
2023-04-30T12:49:01.278Z,1.70
2023-04-30T12:50:03.706Z,1.77
2023-04-30T12:51:06.678Z,1.90
2023-04-30T12:52:12.865Z,1.60
2023-04-30T12:53:14.521Z,1.87
2023-04-30T12:54:24.131Z,1.67
2023-04-30T12:55:26.955Z,1.77
2023-04-30T12:56:28.542Z,1.57
2023-04-30T12:57:30.313Z,1.57
2023-04-30T12:58:31.915Z,1.67
2023-04-30T12:59:38.794Z,1.47
2023-04-30T13:00:48.207Z,1.37
2023-04-30T13:01:50.045Z,1.70
2023-04-30T13:02:51.948Z,1.70
2023-04-30T13:03:54.236Z,2.07
2023-04-30T13:04:56.862Z,1.20
2023-04-30T13:05:58.777Z,1.10
2023-04-30T13:07:00.451Z,1.80
2023-04-30T13:08:03.623Z,1.50
2023-04-30T13:09:05.218Z,1.73
2023-04-30T13:10:07.376Z,1.67
2023-04-30T13:11:11.340Z,1.10
2023-04-30T13:12:13.121Z,1.70
2023-04-30T13:13:16.680Z,1.40
2023-04-30T13:14:18.236Z,2.20
2023-04-30T13:15:19.937Z,1.60
2023-04-30T13:16:21.668Z,1.63
2023-04-30T13:17:23.508Z,1.67
2023-04-30T13:18:25.754Z,1.70
2023-04-30T13:19:27.446Z,1.60
2023-04-30T13:20:29.347Z,2.20
2023-04-30T13:21:31.024Z,1.50
2023-04-30T13:22:32.666Z,1.40
2023-04-30T13:23:41.503Z,1.90
2023-04-30T13:24:53.229Z,1.73
2023-04-30T13:25:54.786Z,1.40
2023-04-30T13:26:57.723Z,1.60
2023-04-30T13:28:00.003Z,1.70
2023-04-30T13:29:01.840Z,1.80
2023-04-30T13:30:04.367Z,2.20
2023-04-30T13:31:06.223Z,1.80
2023-04-30T13:32:08.342Z,1.67
2023-04-30T13:33:10.002Z,1.67
2023-04-30T13:34:11.642Z,1.37
2023-04-30T13:35:13.375Z,1.53
2023-04-30T13:36:15.472Z,1.40
2023-04-30T13:37:17.076Z,1.47
2023-04-30T13:38:18.676Z,1.50
2023-04-30T13:39:20.466Z,1.30
2023-04-30T13:40:22.270Z,2.13
2023-04-30T13:41:23.809Z,1.80
2023-04-30T13:42:26.711Z,1.40
2023-04-30T13:43:28.415Z,1.50
2023-04-30T13:44:32.674Z,1.20
2023-04-30T13:45:34.291Z,1.30
2023-04-30T13:46:35.932Z,1.60
2023-04-30T13:47:38.300Z,2.10
2023-04-30T13:48:39.943Z,1.27
2023-04-30T13:49:41.573Z,1.90
2023-04-30T13:50:43.111Z,1.73
2023-04-30T13:51:44.665Z,1.40
2023-04-30T13:52:46.338Z,1.60
2023-04-30T13:53:48.039Z,1.50
2023-04-30T13:54:49.893Z,1.70
2023-04-30T13:55:51.497Z,1.60
2023-04-30T13:56:53.283Z,2.00
2023-04-30T13:57:54.870Z,1.83
2023-04-30T13:58:56.512Z,1.40
2023-04-30T13:59:58.491Z,1.53
2023-04-30T14:01:00.420Z,1.37
2023-04-30T14:02:02.018Z,1.20
2023-04-30T14:03:05.111Z,1.10
2023-04-30T14:04:08.876Z,1.23
2023-04-30T14:05:10.675Z,1.47
2023-04-30T14:06:12.421Z,1.67